Time;durP1;ratioP1;P1;durP2;ratioP2;P2;SDS_P1;SDS_P2;PMS_P1;PMS_P2;Temp;Humidity;BMP_temperature;BMP_pressure;BME280_temperature;BME280_humidity;BME280_pressure;Samples;Min_cycle;Max_cycle;Signal;HPM_P1;HPM_P2
2023/05/05 00:00:05;;;;;;;2.72;1.52;;;;;;;;;;1019350;29;20530;-73
2023/05/05 00:00:36;;;;;;;4.78;2.20;;;;;;;;;;1019389;29;20051;-73
2023/05/05 00:01:07;;;;;;;1.60;1.30;;;;;;;;;;1023456;29;20447;-74
2023/05/05 00:01:38;;;;;;;1.35;1.08;;;;;;;;;;1023509;29;20542;-73
2023/05/05 00:02:08;;;;;;;1.35;0.50;;;;;;;;;;1023401;29;20035;-73
2023/05/05 00:02:39;;;;;;;10.30;2.58;;;;;;;;;;1023783;29;20110;-73
2023/05/05 00:03:09;;;;;;;2.20;1.42;;;;;;;;;;1023845;29;20457;-73
2023/05/05 00:03:41;;;;;;;2.30;1.40;;;;;;;;;;1023540;29;20026;-73
2023/05/05 00:04:11;;;;;;;8.20;1.55;;;;;;;;;;1023652;29;20086;-73
2023/05/05 00:04:42;;;;;;;1.45;1.35;;;;;;;;;;1023774;29;20031;-74
2023/05/05 00:05:12;;;;;;;3.22;1.70;;;;;;;;;;1023674;29;20023;-74
2023/05/05 00:05:43;;;;;;;18.13;1.30;;;;;;;;;;1023627;29;20455;-74
2023/05/05 00:06:13;;;;;;;1.27;1.17;;;;;;;;;;1023720;29;20394;-75
2023/05/05 00:06:44;;;;;;;1.67;1.40;;;;;;;;;;1023554;29;20050;-73
2023/05/05 00:07:14;;;;;;;1.42;1.20;;;;;;;;;;1023844;29;20034;-74
2023/05/05 00:07:45;;;;;;;3.60;0.95;;;;;;;;;;1023669;29;20023;-74
2023/05/05 00:08:15;;;;;;;2.05;1.45;;;;;;;;;;1023758;29;20062;-73
2023/05/05 00:08:46;;;;;;;2.08;1.08;;;;;;;;;;1019381;29;20046;-73
2023/05/05 00:09:16;;;;;;;1.25;1.13;;;;;;;;;;1019485;29;20058;-73
2023/05/05 00:09:47;;;;;;;0.28;0.28;;;;;;;;;;1019337;29;20114;-74
2023/05/05 00:10:17;;;;;;;2.25;1.92;;;;;;;;;;1019547;29;20035;-74
2023/05/05 00:10:51;;;;;;;0.98;0.60;;;;;;;;;;1023704;29;20091;-74
2023/05/05 00:11:22;;;;;;;3.05;1.10;;;;;;;;;;1023183;28;20038;-74
2023/05/05 00:11:52;;;;;;;1.35;1.13;;;;;;;;;;1023183;29;20061;-73
2023/05/05 00:12:23;;;;;;;2.40;1.23;;;;;;;;;;1023405;29;20428;-74
2023/05/05 00:12:53;;;;;;;0.80;0.68;;;;;;;;;;1023477;29;20058;-73
2023/05/05 00:13:24;;;;;;;1.40;1.08;;;;;;;;;;1023534;29;20033;-73
2023/05/05 00:13:54;;;;;;;0.55;0.47;;;;;;;;;;1023539;29;20039;-73
2023/05/05 00:14:25;;;;;;;0.88;0.82;;;;;;;;;;1023729;29;20023;-73
2023/05/05 00:14:55;;;;;;;2.45;1.50;;;;;;;;;;1023701;29;20015;-73
2023/05/05 00:15:26;;;;;;;2.05;1.15;;;;;;;;;;1023614;29;20027;-73
2023/05/05 00:15:56;;;;;;;2.10;1.20;;;;;;;;;;1023665;29;20027;-73
2023/05/05 00:16:27;;;;;;;7.32;2.83;;;;;;;;;;1023771;29;20459;-73
2023/05/05 00:16:57;;;;;;;3.00;1.88;;;;;;;;;;1023681;29;20035;-73
2023/05/05 00:17:28;;;;;;;3.72;0.68;;;;;;;;;;1023650;29;20031;-73
2023/05/05 00:17:58;;;;;;;1.23;0.88;;;;;;;;;;1023684;29;20027;-74
2023/05/05 00:18:29;;;;;;;1.90;1.65;;;;;;;;;;1023302;29;20079;-73
2023/05/05 00:19:00;;;;;;;3.67;1.23;;;;;;;;;;1023372;29;20015;-74
2023/05/05 00:19:30;;;;;;;1.45;1.05;;;;;;;;;;1019298;29;20063;-73
2023/05/05 00:20:00;;;;;;;0.30;0.30;;;;;;;;;;1019306;29;20020;-73
2023/05/05 00:20:31;;;;;;;19.35;2.33;;;;;;;;;;1015715;29;20032;-73
2023/05/05 00:21:03;;;;;;;0.80;0.80;;;;;;;;;;1019427;29;20019;-73
2023/05/05 00:21:33;;;;;;;1.13;1.13;;;;;;;;;;1023505;29;20027;-73
2023/05/05 00:22:04;;;;;;;5.82;1.10;;;;;;;;;;1023686;29;20452;-74
2023/05/05 00:22:35;;;;;;;1.25;1.08;;;;;;;;;;1023752;29;20050;-73
2023/05/05 00:23:05;;;;;;;1.45;0.95;;;;;;;;;;1023701;29;20169;-73
2023/05/05 00:23:36;;;;;;;2.63;1.70;;;;;;;;;;1023670;29;20019;-73
2023/05/05 00:24:08;;;;;;;7.85;2.47;;;;;;;;;;1023592;29;20023;-74
2023/05/05 00:24:39;;;;;;;4.30;0.93;;;;;;;;;;1023576;29;20031;-73
2023/05/05 00:25:10;;;;;;;4.80;1.83;;;;;;;;;;1023543;29;20015;-73
2023/05/05 00:25:41;;;;;;;3.03;2.15;;;;;;;;;;1023650;29;20038;-73
2023/05/05 00:26:11;;;;;;;2.80;1.30;;;;;;;;;;1023502;28;20062;-74
2023/05/05 00:26:42;;;;;;;4.45;0.93;;;;;;;;;;1023580;28;20035;-73
2023/05/05 00:27:12;;;;;;;1.48;0.77;;;;;;;;;;1023729;29;20046;-74
2023/05/05 00:27:43;;;;;;;3.70;2.08;;;;;;;;;;1023486;29;20027;-73
2023/05/05 00:28:13;;;;;;;1.17;1.05;;;;;;;;;;1023689;29;20023;-73
2023/05/05 00:28:44;;;;;;;1.55;1.20;;;;;;;;;;1022650;29;20031;-74
2023/05/05 00:29:14;;;;;;;0.63;0.50;;;;;;;;;;1023762;29;20122;-73
2023/05/05 00:29:45;;;;;;;4.22;1.63;;;;;;;;;;1023502;29;20396;-73
2023/05/05 00:30:15;;;;;;;0.60;0.60;;;;;;;;;;1023791;29;20090;-73
2023/05/05 00:30:46;;;;;;;1.05;0.73;;;;;;;;;;1022937;28;20035;-73
2023/05/05 00:31:16;;;;;;;1.67;0.60;;;;;;;;;;1023833;29;20475;-73
2023/05/05 00:31:49;;;;;;;9.63;1.75;;;;;;;;;;1022637;28;20027;-74
2023/05/05 00:32:19;;;;;;;3.15;1.70;;;;;;;;;;1023048;28;20027;-74
2023/05/05 00:32:50;;;;;;;1.42;1.30;;;;;;;;;;1022922;29;20027;-73
2023/05/05 00:33:20;;;;;;;3.70;1.60;;;;;;;;;;1023732;29;20027;-74
2023/05/05 00:33:51;;;;;;;2.47;2.25;;;;;;;;;;1023342;29;20035;-73
2023/05/05 00:34:21;;;;;;;4.43;3.47;;;;;;;;;;1023702;29;20030;-72
2023/05/05 00:34:52;;;;;;;3.85;2.03;;;;;;;;;;1023091;28;20480;-74
2023/05/05 00:35:23;;;;;;;1.52;1.25;;;;;;;;;;1023760;29;20118;-74
2023/05/05 00:35:53;;;;;;;3.83;1.75;;;;;;;;;;1023457;29;20559;-74
2023/05/05 00:36:23;;;;;;;3.67;2.47;;;;;;;;;;1023706;29;20114;-74
2023/05/05 00:36:54;;;;;;;5.50;4.10;;;;;;;;;;1023385;28;20792;-74
2023/05/05 00:37:24;;;;;;;7.10;4.53;;;;;;;;;;1023271;29;20026;-73
2023/05/05 00:37:55;;;;;;;10.55;5.15;;;;;;;;;;1022539;29;20027;-73
2023/05/05 00:38:26;;;;;;;15.57;5.60;;;;;;;;;;1023721;29;20031;-74
2023/05/05 00:38:56;;;;;;;14.93;4.65;;;;;;;;;;1023039;28;20023;-73
2023/05/05 00:39:27;;;;;;;29.20;7.57;;;;;;;;;;1022596;28;20039;-73
2023/05/05 00:39:58;;;;;;;25.55;5.53;;;;;;;;;;1023600;29;20027;-73
2023/05/05 00:40:28;;;;;;;14.70;6.53;;;;;;;;;;1023054;28;20038;-73
2023/05/05 00:40:59;;;;;;;17.88;3.88;;;;;;;;;;1023562;29;20106;-74
2023/05/05 00:41:29;;;;;;;14.20;6.22;;;;;;;;;;1025565;28;20101;-73
2023/05/05 00:41:59;;;;;;;13.15;7.97;;;;;;;;;;1023674;29;20026;-73
2023/05/05 00:42:40;;;;;;;13.07;5.80;;;;;;;;;;1019252;29;20083;-73
2023/05/05 00:43:11;;;;;;;15.57;6.53;;;;;;;;;;1018840;29;20054;-73
2023/05/05 00:43:42;;;;;;;17.10;6.05;;;;;;;;;;1019522;29;20451;-74
2023/05/05 00:44:12;;;;;;;14.02;8.18;;;;;;;;;;1020918;29;20027;-73
2023/05/05 00:44:43;;;;;;;25.05;8.50;;;;;;;;;;1023702;29;20023;-73
2023/05/05 00:45:14;;;;;;;14.80;7.28;;;;;;;;;;1023805;29;20030;-74
2023/05/05 00:45:46;;;;;;;18.98;7.00;;;;;;;;;;1018896;29;20547;-74
2023/05/05 00:46:21;;;;;;;22.27;8.95;;;;;;;;;;1019299;29;20087;-74
2023/05/05 00:46:51;;;;;;;28.15;7.47;;;;;;;;;;1019385;29;20031;-73
2023/05/05 00:47:22;;;;;;;29.35;9.13;;;;;;;;;;1019528;29;20027;-73
2023/05/05 00:47:59;;;;;;;24.42;9.95;;;;;;;;;;1019922;29;20087;-73
2023/05/05 00:48:30;;;;;;;21.88;9.38;;;;;;;;;;1023408;29;20126;-73
2023/05/05 00:49:01;;;;;;;28.02;12.55;;;;;;;;;;1023601;29;20391;-74
2023/05/05 00:49:32;;;;;;;38.83;14.10;;;;;;;;;;1023663;29;20026;-74
2023/05/05 00:50:03;;;;;;;20.85;9.20;;;;;;;;;;1023100;29;20033;-74
2023/05/05 00:50:33;;;;;;;33.97;15.32;;;;;;;;;;1023282;29;20083;-73
2023/05/05 00:51:07;;;;;;;53.70;20.63;;;;;;;;;;1024268;28;20511;-73
2023/05/05 00:51:38;;;;;;;38.65;18.60;;;;;;;;;;1022750;29;20542;-73
2023/05/05 00:52:09;;;;;;;51.40;20.00;;;;;;;;;;1022890;29;20020;-74
2023/05/05 00:52:39;;;;;;;61.38;17.63;;;;;;;;;;1023270;29;20109;-74
2023/05/05 00:53:10;;;;;;;50.83;19.27;;;;;;;;;;1023368;28;20031;-74
2023/05/05 00:53:43;;;;;;;49.30;14.73;;;;;;;;;;1022321;29;20115;-73
2023/05/05 00:54:14;;;;;;;32.72;15.70;;;;;;;;;;1022770;29;20503;-73
2023/05/05 00:54:44;;;;;;;23.17;8.70;;;;;;;;;;1020050;29;20027;-74
2023/05/05 00:55:15;;;;;;;15.38;6.10;;;;;;;;;;1020335;29;20175;-73
2023/05/05 00:55:46;;;;;;;22.02;8.65;;;;;;;;;;1019075;29;20023;-74
2023/05/05 00:56:18;;;;;;;12.07;6.40;;;;;;;;;;1020393;29;20510;-73
2023/05/05 00:56:49;;;;;;;18.25;7.18;;;;;;;;;;1024463;29;20023;-74
2023/05/05 00:57:20;;;;;;;13.38;7.25;;;;;;;;;;1024221;29;20031;-74
2023/05/05 00:57:50;;;;;;;12.80;4.93;;;;;;;;;;1023888;29;20015;-74
2023/05/05 00:58:21;;;;;;;9.48;5.22;;;;;;;;;;1023976;29;20474;-74
2023/05/05 00:58:51;;;;;;;5.82;3.47;;;;;;;;;;1024127;29;20027;-73
2023/05/05 00:59:22;;;;;;;5.13;2.95;;;;;;;;;;1024216;29;20023;-74
2023/05/05 00:59:53;;;;;;;2.50;1.65;;;;;;;;;;1023860;29;20106;-74
2023/05/05 01:00:24;;;;;;;2.88;1.75;;;;;;;;;;1019885;29;20452;-74
2023/05/05 01:00:55;;;;;;;7.80;3.30;;;;;;;;;;1019376;29;20024;-74
2023/05/05 01:01:26;;;;;;;6.72;3.17;;;;;;;;;;1024480;29;20058;-74
2023/05/05 01:01:56;;;;;;;2.58;1.25;;;;;;;;;;1024375;29;20011;-74
2023/05/05 01:02:26;;;;;;;4.10;1.58;;;;;;;;;;1024339;29;20123;-74
2023/05/05 01:02:58;;;;;;;2.10;1.38;;;;;;;;;;1024393;29;20392;-74
2023/05/05 01:03:28;;;;;;;6.45;2.20;;;;;;;;;;1024513;29;20015;-73
2023/05/05 01:03:59;;;;;;;6.65;3.65;;;;;;;;;;1024245;29;20062;-73
2023/05/05 01:04:29;;;;;;;6.00;1.40;;;;;;;;;;1024388;29;20035;-74
2023/05/05 01:05:00;;;;;;;3.17;1.92;;;;;;;;;;1024444;29;20110;-73
2023/05/05 01:05:36;;;;;;;0.77;0.75;;;;;;;;;;1024507;29;20031;-74
2023/05/05 01:06:25;;;;;;;4.35;1.33;;;;;;;;;;1023479;29;20387;-74
2023/05/05 01:07:06;;;;;;;2.22;1.25;;;;;;;;;;1024464;29;20085;-74
2023/05/05 01:07:43;;;;;;;3.70;1.23;;;;;;;;;;1024495;29;20026;-74
2023/05/05 01:08:28;;;;;;;1.73;0.93;;;;;;;;;;1023674;29;20019;-74
2023/05/05 01:09:19;;;;;;;1.20;1.02;;;;;;;;;;1023877;29;20407;-74
2023/05/05 01:09:58;;;;;;;0.77;0.75;;;;;;;;;;1022977;29;20379;-74
2023/05/05 01:10:34;;;;;;;2.97;1.13;;;;;;;;;;1023897;29;20032;-75
2023/05/05 01:11:25;;;;;;;0.88;0.80;;;;;;;;;;1023456;28;20030;-75
2023/05/05 01:12:11;;;;;;;2.78;1.38;;;;;;;;;;1023771;29;20114;-75
2023/05/05 01:12:56;;;;;;;2.80;2.05;;;;;;;;;;1024313;29;20025;-73
2023/05/05 01:13:34;;;;;;;0.95;0.93;;;;;;;;;;1024496;29;20106;-74
2023/05/05 01:14:31;;;;;;;1.20;0.60;;;;;;;;;;1024081;29;20046;-74
2023/05/05 01:15:13;;;;;;;31.98;2.33;;;;;;;;;;1020107;29;20031;-73
2023/05/05 01:15:44;;;;;;;2.92;2.58;;;;;;;;;;1024102;29;20042;-74
2023/05/05 01:16:23;;;;;;;2.47;1.50;;;;;;;;;;1024239;29;20054;-74
2023/05/05 01:16:57;;;;;;;2.73;1.93;;;;;;;;;;1024357;29;20074;-76
2023/05/05 01:17:32;;;;;;;3.92;1.85;;;;;;;;;;1024043;28;20250;-74
2023/05/05 01:18:08;;;;;;;4.43;3.08;;;;;;;;;;1023595;29;20023;-74
2023/05/05 01:18:45;;;;;;;3.65;1.63;;;;;;;;;;1020070;29;20034;-74
2023/05/05 01:19:43;;;;;;;4.03;2.08;;;;;;;;;;1019255;29;20024;-74
2023/05/05 01:20:22;;;;;;;8.98;1.90;;;;;;;;;;1019931;29;20512;-74
2023/05/05 01:20:53;;;;;;;2.53;2.03;;;;;;;;;;1020609;29;20114;-73
2023/05/05 01:21:42;;;;;;;2.35;1.65;;;;;;;;;;1024206;29;20039;-74
2023/05/05 01:22:12;;;;;;;2.83;2.40;;;;;;;;;;1024094;29;20019;-73
2023/05/05 01:22:49;;;;;;;3.58;2.22;;;;;;;;;;1023442;29;20023;-73
2023/05/05 01:23:30;;;;;;;7.82;2.67;;;;;;;;;;1024459;29;20038;-73
2023/05/05 01:24:03;;;;;;;5.85;3.08;;;;;;;;;;1023519;29;20028;-74
2023/05/05 01:24:40;;;;;;;10.60;2.78;;;;;;;;;;1019366;29;20028;-74
2023/05/05 01:25:36;;;;;;;2.90;1.00;;;;;;;;;;1019705;29;20028;-73
2023/05/05 01:26:07;;;;;;;3.53;2.22;;;;;;;;;;1019561;29;20030;-74
2023/05/05 01:26:54;;;;;;;3.03;2.22;;;;;;;;;;1023973;28;20042;-74
2023/05/05 01:27:43;;;;;;;3.95;2.05;;;;;;;;;;1024403;29;20031;-73
2023/05/05 01:28:14;;;;;;;9.07;1.15;;;;;;;;;;1024119;29;20031;-74
2023/05/05 01:29:06;;;;;;;6.55;2.13;;;;;;;;;;1024354;29;20034;-74
2023/05/05 01:29:42;;;;;;;2.35;1.98;;;;;;;;;;1023711;29;20122;-73
2023/05/05 01:30:22;;;;;;;2.17;1.15;;;;;;;;;;1023773;29;20061;-74
2023/05/05 01:30:55;;;;;;;10.70;1.55;;;;;;;;;;1023490;29;20067;-73
2023/05/05 01:31:31;;;;;;;12.38;3.25;;;;;;;;;;1020116;29;20031;-73
2023/05/05 01:32:05;;;;;;;0.75;0.52;;;;;;;;;;1019614;29;20055;-74
2023/05/05 01:32:41;;;;;;;3.40;1.70;;;;;;;;;;1020145;29;20818;-74
2023/05/05 01:33:13;;;;;;;3.97;1.35;;;;;;;;;;1021373;29;20055;-73
2023/05/05 01:33:48;;;;;;;2.58;1.90;;;;;;;;;;1024255;29;20019;-73
2023/05/05 01:34:26;;;;;;;4.20;2.05;;;;;;;;;;1023430;29;20019;-73
2023/05/05 01:35:01;;;;;;;2.70;1.77;;;;;;;;;;1023908;29;20027;-74
2023/05/05 01:35:36;;;;;;;1.42;1.13;;;;;;;;;;1024305;29;20063;-74
2023/05/05 01:36:10;;;;;;;6.28;1.77;;;;;;;;;;1023233;29;20023;-73
2023/05/05 01:36:43;;;;;;;4.30;0.95;;;;;;;;;;1023534;29;20021;-73
2023/05/05 01:37:28;;;;;;;7.68;1.80;;;;;;;;;;1023421;29;20412;-73
2023/05/05 01:38:10;;;;;;;1.85;0.75;;;;;;;;;;1024221;29;20019;-73
2023/05/05 01:38:42;;;;;;;7.53;1.80;;;;;;;;;;1023843;29;20024;-73
2023/05/05 01:39:15;;;;;;;0.90;0.70;;;;;;;;;;1024205;29;20024;-73
2023/05/05 01:39:47;;;;;;;4.10;0.93;;;;;;;;;;1024193;29;20027;-74
2023/05/05 01:40:21;;;;;;;1.65;0.95;;;;;;;;;;1023400;29;20038;-73
2023/05/05 01:40:58;;;;;;;3.65;1.10;;;;;;;;;;1023390;29;20078;-73
2023/05/05 01:41:49;;;;;;;6.93;1.92;;;;;;;;;;1025925;28;20054;-73
2023/05/05 01:42:20;;;;;;;4.50;1.92;;;;;;;;;;1023589;29;20039;-74
2023/05/05 01:42:53;;;;;;;2.47;1.38;;;;;;;;;;1024185;29;20118;-74
2023/05/05 01:43:26;;;;;;;4.47;2.55;;;;;;;;;;1023536;29;20027;-74
2023/05/05 01:43:59;;;;;;;1.00;0.75;;;;;;;;;;1023316;29;20078;-74
2023/05/05 01:44:29;;;;;;;4.82;1.45;;;;;;;;;;1023319;29;20019;-73
2023/05/05 01:45:02;;;;;;;6.40;3.28;;;;;;;;;;1019875;29;20380;-74
2023/05/05 01:45:34;;;;;;;3.58;2.35;;;;;;;;;;1020057;29;20492;-73
2023/05/05 01:46:05;;;;;;;4.95;2.08;;;;;;;;;;1019659;29;20084;-73
2023/05/05 01:46:36;;;;;;;4.13;1.98;;;;;;;;;;1020538;29;20368;-74
2023/05/05 01:47:07;;;;;;;3.33;1.30;;;;;;;;;;1024174;29;20039;-74
2023/05/05 01:47:38;;;;;;;5.93;1.88;;;;;;;;;;1024319;29;20050;-73
2023/05/05 01:48:11;;;;;;;2.88;1.20;;;;;;;;;;1024119;29;20031;-74
2023/05/05 01:48:42;;;;;;;4.63;2.35;;;;;;;;;;1023560;29;20082;-74
2023/05/05 01:49:14;;;;;;;5.55;2.80;;;;;;;;;;1023296;29;20027;-73
2023/05/05 01:49:45;;;;;;;4.47;2.00;;;;;;;;;;1024203;29;20079;-73
2023/05/05 01:50:16;;;;;;;11.60;3.10;;;;;;;;;;1024175;29;20030;-74
2023/05/05 01:50:47;;;;;;;4.85;2.10;;;;;;;;;;1024194;29;20023;-74
2023/05/05 01:51:19;;;;;;;9.88;1.73;;;;;;;;;;1023351;29;20023;-75
2023/05/05 01:51:51;;;;;;;5.53;1.95;;;;;;;;;;1023697;29;20125;-75
2023/05/05 01:52:22;;;;;;;15.02;2.05;;;;;;;;;;1022002;29;20117;-74
2023/05/05 01:52:53;;;;;;;7.47;3.90;;;;;;;;;;1022120;29;20034;-73
2023/05/05 01:53:25;;;;;;;2.47;2.13;;;;;;;;;;1021966;29;20019;-73
2023/05/05 01:53:56;;;;;;;10.60;2.15;;;;;;;;;;1021689;29;20098;-73
2023/05/05 01:54:27;;;;;;;1.85;1.23;;;;;;;;;;1024223;29;20086;-73
2023/05/05 01:54:59;;;;;;;4.43;2.00;;;;;;;;;;1023843;29;20077;-73
2023/05/05 01:55:29;;;;;;;1.15;1.05;;;;;;;;;;1023158;29;20450;-73
2023/05/05 01:56:01;;;;;;;1.95;1.70;;;;;;;;;;1023736;29;20031;-74
2023/05/05 01:56:31;;;;;;;3.42;2.42;;;;;;;;;;1024130;28;20149;-73
2023/05/05 01:57:03;;;;;;;8.45;1.98;;;;;;;;;;1024302;29;20434;-73
2023/05/05 01:57:35;;;;;;;3.10;2.00;;;;;;;;;;1023327;29;20027;-74
2023/05/05 01:58:06;;;;;;;6.32;1.92;;;;;;;;;;1023932;29;20027;-74
2023/05/05 01:58:37;;;;;;;7.78;2.53;;;;;;;;;;1024230;29;20023;-73
2023/05/05 01:59:08;;;;;;;2.65;1.90;;;;;;;;;;1024297;29;20019;-73
2023/05/05 01:59:39;;;;;;;7.10;2.70;;;;;;;;;;1023276;29;20023;-74
2023/05/05 02:00:10;;;;;;;4.30;2.08;;;;;;;;;;1024034;29;20062;-73
2023/05/05 02:00:41;;;;;;;5.53;3.00;;;;;;;;;;1024196;29;20035;-74
2023/05/05 02:01:12;;;;;;;10.88;2.53;;;;;;;;;;1024255;29;20146;-73
2023/05/05 02:01:45;;;;;;;2.53;1.77;;;;;;;;;;1024235;29;20031;-73
2023/05/05 02:02:18;;;;;;;5.57;2.55;;;;;;;;;;1023623;29;20098;-73
2023/05/05 02:02:49;;;;;;;3.63;2.13;;;;;;;;;;1023920;29;20034;-75
2023/05/05 02:03:20;;;;;;;6.65;2.70;;;;;;;;;;1024020;29;20503;-74
2023/05/05 02:03:52;;;;;;;2.40;2.20;;;;;;;;;;1023797;29;20411;-73
2023/05/05 02:04:23;;;;;;;3.15;2.47;;;;;;;;;;1023184;29;20454;-73
2023/05/05 02:04:54;;;;;;;6.45;1.95;;;;;;;;;;1019431;29;20027;-74
2023/05/05 02:05:25;;;;;;;6.55;2.65;;;;;;;;;;1020017;29;20032;-74
2023/05/05 02:05:57;;;;;;;4.95;1.70;;;;;;;;;;1019921;29;20036;-74
2023/05/05 02:06:29;;;;;;;1.60;1.35;;;;;;;;;;1020184;29;20024;-73
2023/05/05 02:07:00;;;;;;;8.68;2.45;;;;;;;;;;1024072;29;20054;-73
2023/05/05 02:07:32;;;;;;;2.70;1.70;;;;;;;;;;1019713;29;20030;-74
2023/05/05 02:08:04;;;;;;;8.38;2.50;;;;;;;;;;1019807;29;20543;-74
2023/05/05 02:08:36;;;;;;;6.25;2.17;;;;;;;;;;1019260;29;20476;-73
2023/05/05 02:09:10;;;;;;;3.38;1.55;;;;;;;;;;1019525;29;20026;-74
2023/05/05 02:09:41;;;;;;;27.77;3.30;;;;;;;;;;1019895;29;20023;-74
2023/05/05 02:10:13;;;;;;;5.85;2.72;;;;;;;;;;1019583;29;20033;-73
2023/05/05 02:10:43;;;;;;;3.92;1.13;;;;;;;;;;1019840;29;20023;-73
2023/05/05 02:11:14;;;;;;;7.03;2.78;;;;;;;;;;1020426;28;20063;-73
2023/05/05 02:11:45;;;;;;;1.98;1.13;;;;;;;;;;1024183;29;20391;-74
2023/05/05 02:12:16;;;;;;;1.80;1.70;;;;;;;;;;1023699;29;20184;-74
2023/05/05 02:12:47;;;;;;;3.30;1.40;;;;;;;;;;1023763;29;20054;-74
2023/05/05 02:13:18;;;;;;;3.72;1.30;;;;;;;;;;1023998;29;20429;-74
2023/05/05 02:13:49;;;;;;;3.13;2.08;;;;;;;;;;1022760;29;20023;-73
2023/05/05 02:14:21;;;;;;;19.25;1.60;;;;;;;;;;1024109;29;20035;-74
2023/05/05 02:14:52;;;;;;;6.95;2.22;;;;;;;;;;1023720;29;20023;-74
2023/05/05 02:15:23;;;;;;;2.75;1.27;;;;;;;;;;1024065;29;20023;-75
2023/05/05 02:15:54;;;;;;;1.73;0.90;;;;;;;;;;1023579;29;20031;-74
2023/05/05 02:16:25;;;;;;;1.95;1.42;;;;;;;;;;1021882;29;20019;-74
2023/05/05 02:16:55;;;;;;;3.22;2.17;;;;;;;;;;1022122;29;20027;-74
2023/05/05 02:17:26;;;;;;;2.58;1.90;;;;;;;;;;1020734;29;20031;-74
2023/05/05 02:17:58;;;;;;;6.03;3.08;;;;;;;;;;1022398;29;20121;-75
2023/05/05 02:18:32;;;;;;;3.00;2.17;;;;;;;;;;1024039;29;20023;-75
2023/05/05 02:19:05;;;;;;;3.10;2.10;;;;;;;;;;1024084;29;20018;-75
2023/05/05 02:19:38;;;;;;;3.78;1.90;;;;;;;;;;1024140;29;20042;-74
2023/05/05 02:20:12;;;;;;;9.07;1.75;;;;;;;;;;1024008;29;20114;-74
2023/05/05 02:20:44;;;;;;;4.40;1.73;;;;;;;;;;1024064;29;20019;-74
2023/05/05 02:21:16;;;;;;;1.52;1.00;;;;;;;;;;1024229;29;20027;-74
2023/05/05 02:21:47;;;;;;;3.25;1.70;;;;;;;;;;1019617;29;20024;-74
2023/05/05 02:22:17;;;;;;;4.65;1.05;;;;;;;;;;1019765;29;20027;-74
2023/05/05 02:22:48;;;;;;;3.88;1.45;;;;;;;;;;1019823;29;20043;-74
2023/05/05 02:23:19;;;;;;;5.55;1.63;;;;;;;;;;1020120;29;20038;-75
2023/05/05 02:23:50;;;;;;;5.05;1.00;;;;;;;;;;1019750;29;20011;-75
2023/05/05 02:24:21;;;;;;;3.35;1.88;;;;;;;;;;1019805;29;20043;-75
2023/05/05 02:24:51;;;;;;;2.05;1.15;;;;;;;;;;1019749;29;20057;-75
2023/05/05 02:25:24;;;;;;;1.90;1.33;;;;;;;;;;1019095;29;20142;-74
2023/05/05 02:26:06;;;;;;;2.40;1.30;;;;;;;;;;1023709;29;20410;-75
2023/05/05 02:26:41;;;;;;;3.10;1.48;;;;;;;;;;1021543;28;20122;-75
2023/05/05 02:27:13;;;;;;;3.70;0.90;;;;;;;;;;1019828;29;20111;-76
2023/05/05 02:27:45;;;;;;;1.00;0.68;;;;;;;;;;1019815;29;20188;-74
2023/05/05 02:28:41;;;;;;;3.08;1.55;;;;;;;;;;1020680;29;20031;-75
2023/05/05 02:29:19;;;;;;;4.05;1.95;;;;;;;;;;1011076;29;20428;-75
2023/05/05 02:29:56;;;;;;;1.17;0.82;;;;;;;;;;1016872;29;20043;-75
2023/05/05 02:30:28;;;;;;;2.35;1.15;;;;;;;;;;1022948;29;20023;-75
2023/05/05 02:30:59;;;;;;;1.92;1.20;;;;;;;;;;1023655;29;20027;-76
2023/05/05 02:31:31;;;;;;;3.25;2.08;;;;;;;;;;1023758;29;20054;-74
2023/05/05 02:32:08;;;;;;;1.40;1.10;;;;;;;;;;1023199;29;20117;-75
2023/05/05 02:32:43;;;;;;;4.18;1.65;;;;;;;;;;1019064;29;20516;-73
2023/05/05 02:33:16;;;;;;;6.07;0.95;;;;;;;;;;1021030;29;20035;-74
2023/05/05 02:33:48;;;;;;;2.72;0.68;;;;;;;;;;1018865;29;20110;-75
2023/05/05 02:34:21;;;;;;;1.02;0.73;;;;;;;;;;1018899;29;20122;-74
2023/05/05 02:34:52;;;;;;;3.08;2.08;;;;;;;;;;1018792;29;20028;-74
2023/05/05 02:35:26;;;;;;;5.18;1.90;;;;;;;;;;1020770;29;20046;-75
2023/05/05 02:35:56;;;;;;;2.90;1.85;;;;;;;;;;1023919;29;20027;-77
2023/05/05 02:36:29;;;;;;;2.05;1.25;;;;;;;;;;1024028;29;20015;-76
2023/05/05 02:37:05;;;;;;;0.88;0.77;;;;;;;;;;1019615;29;20086;-74
2023/05/05 02:37:36;;;;;;;2.95;1.50;;;;;;;;;;1019805;29;20519;-75
2023/05/05 02:38:11;;;;;;;1.42;1.30;;;;;;;;;;1019643;29;20024;-75
2023/05/05 02:38:42;;;;;;;3.50;0.80;;;;;;;;;;1021364;29;20032;-76
2023/05/05 02:39:18;;;;;;;4.63;1.05;;;;;;;;;;1024060;29;20078;-76
2023/05/05 02:40:07;;;;;;;1.90;1.38;;;;;;;;;;1023808;29;20363;-75
2023/05/05 02:40:39;;;;;;;1.58;1.42;;;;;;;;;;1019754;29;20028;-75
2023/05/05 02:41:12;;;;;;;2.15;1.13;;;;;;;;;;1020494;29;20491;-74
2023/05/05 02:41:44;;;;;;;1.17;0.80;;;;;;;;;;1020929;29;20550;-74
2023/05/05 02:42:19;;;;;;;2.28;1.08;;;;;;;;;;1020378;29;20046;-75
2023/05/05 02:42:53;;;;;;;8.75;3.03;;;;;;;;;;1023073;29;20047;-75
2023/05/05 02:43:24;;;;;;;1.27;0.80;;;;;;;;;;1022890;29;20023;-76
2023/05/05 02:43:56;;;;;;;0.95;0.70;;;;;;;;;;1019679;29;20024;-74
2023/05/05 02:44:28;;;;;;;2.90;1.65;;;;;;;;;;1019664;29;20070;-74
2023/05/05 02:45:00;;;;;;;11.40;1.35;;;;;;;;;;1019691;29;20028;-76
2023/05/05 02:45:30;;;;;;;1.25;1.15;;;;;;;;;;1020702;29;20027;-75
2023/05/05 02:46:01;;;;;;;15.13;0.82;;;;;;;;;;1022631;29;20023;-76
2023/05/05 02:46:31;;;;;;;2.45;1.45;;;;;;;;;;1023903;29;20394;-74
2023/05/05 02:47:03;;;;;;;1.08;0.73;;;;;;;;;;1024129;29;20065;-75
2023/05/05 02:47:36;;;;;;;1.23;1.13;;;;;;;;;;1023188;29;20109;-75
2023/05/05 02:48:09;;;;;;;7.88;1.38;;;;;;;;;;1022598;29;20019;-75
2023/05/05 02:48:40;;;;;;;4.72;0.88;;;;;;;;;;1019585;29;20111;-75
2023/05/05 02:49:10;;;;;;;1.25;0.75;;;;;;;;;;1019735;29;20027;-75
2023/05/05 02:49:41;;;;;;;1.15;0.80;;;;;;;;;;1019861;29;20023;-75
2023/05/05 02:50:12;;;;;;;0.45;0.45;;;;;;;;;;1018125;29;20412;-76
2023/05/05 02:50:42;;;;;;;0.95;0.50;;;;;;;;;;1023909;29;20023;-75
2023/05/05 02:51:13;;;;;;;0.82;0.82;;;;;;;;;;1024031;29;20058;-75
2023/05/05 02:51:43;;;;;;;3.45;1.15;;;;;;;;;;1023006;29;20023;-75
2023/05/05 02:52:16;;;;;;;3.92;1.85;;;;;;;;;;1023634;29;20015;-76
2023/05/05 02:52:46;;;;;;;0.47;0.43;;;;;;;;;;1023968;29;20023;-75
2023/05/05 02:53:19;;;;;;;5.60;1.83;;;;;;;;;;1024214;29;20115;-74
2023/05/05 02:53:51;;;;;;;1.25;0.98;;;;;;;;;;1023758;29;20526;-74
2023/05/05 02:54:21;;;;;;;10.15;1.65;;;;;;;;;;1023875;29;20499;-75
2023/05/05 02:54:52;;;;;;;1.20;0.80;;;;;;;;;;1023875;29;20027;-74
2023/05/05 02:55:22;;;;;;;2.13;1.38;;;;;;;;;;1024152;29;20011;-75
2023/05/05 02:56:05;;;;;;;2.25;1.25;;;;;;;;;;1023952;29;20669;-74
2023/05/05 02:56:41;;;;;;;7.72;0.63;;;;;;;;;;1019810;29;20018;-74
2023/05/05 02:57:14;;;;;;;1.77;1.00;;;;;;;;;;1019024;29;20024;-75
2023/05/05 02:58:02;;;;;;;1.08;0.40;;;;;;;;;;1018905;29;20072;-76
2023/05/05 02:58:41;;;;;;;3.33;1.42;;;;;;;;;;1022594;29;20110;-75
2023/05/05 02:59:11;;;;;;;0.60;0.50;;;;;;;;;;1023713;28;20023;-76
2023/05/05 02:59:49;;;;;;;1.52;0.90;;;;;;;;;;1024047;29;20078;-76
2023/05/05 03:00:27;;;;;;;0.90;0.50;;;;;;;;;;1023747;29;20035;-76
2023/05/05 03:01:10;;;;;;;1.42;0.98;;;;;;;;;;1023465;29;20478;-76
2023/05/05 03:01:41;;;;;;;1.73;0.43;;;;;;;;;;1023287;29;20533;-73
2023/05/05 03:02:17;;;;;;;1.27;0.88;;;;;;;;;;1023521;29;20034;-74
2023/05/05 03:02:50;;;;;;;15.20;0.63;;;;;;;;;;1019249;29;20120;-75
2023/05/05 03:03:25;;;;;;;2.42;1.42;;;;;;;;;;1019860;29;20032;-75
2023/05/05 03:03:55;;;;;;;7.78;1.25;;;;;;;;;;1019428;29;20047;-76
2023/05/05 03:04:28;;;;;;;0.45;0.40;;;;;;;;;;1021207;29;20058;-74
2023/05/05 03:05:01;;;;;;;5.03;1.02;;;;;;;;;;1023183;29;20049;-75
2023/05/05 03:05:37;;;;;;;2.22;1.52;;;;;;;;;;1023272;29;20030;-75
2023/05/05 03:06:13;;;;;;;3.55;1.17;;;;;;;;;;1023300;29;20118;-74
2023/05/05 03:06:46;;;;;;;4.25;1.50;;;;;;;;;;1023761;29;20035;-75
2023/05/05 03:07:19;;;;;;;11.38;1.27;;;;;;;;;;1024055;29;20019;-75
2023/05/05 03:08:05;;;;;;;1.75;0.75;;;;;;;;;;1023900;29;20034;-74
2023/05/05 03:08:41;;;;;;;0.77;0.68;;;;;;;;;;1023900;29;20565;-75
2023/05/05 03:09:14;;;;;;;1.60;0.95;;;;;;;;;;1023890;28;20143;-75
2023/05/05 03:09:48;;;;;;;1.67;0.88;;;;;;;;;;1023848;29;20027;-75
2023/05/05 03:10:20;;;;;;;22.48;0.93;;;;;;;;;;1023877;29;20768;-76
2023/05/05 03:10:59;;;;;;;1.05;0.57;;;;;;;;;;1023850;29;20031;-75
2023/05/05 03:11:31;;;;;;;1.73;0.70;;;;;;;;;;1023656;28;20023;-74
2023/05/05 03:12:07;;;;;;;2.50;1.15;;;;;;;;;;1022914;29;20050;-74
2023/05/05 03:12:41;;;;;;;4.20;0.85;;;;;;;;;;1023380;29;20439;-74
2023/05/05 03:13:15;;;;;;;1.40;0.68;;;;;;;;;;1023923;29;20027;-74
2023/05/05 03:13:50;;;;;;;3.78;1.40;;;;;;;;;;1023813;29;20068;-75
2023/05/05 03:14:20;;;;;;;5.32;1.02;;;;;;;;;;1023789;28;20039;-74
2023/05/05 03:14:53;;;;;;;0.43;0.43;;;;;;;;;;1023826;29;20027;-75
2023/05/05 03:15:30;;;;;;;2.92;1.77;;;;;;;;;;1024057;29;20023;-75
2023/05/05 03:16:05;;;;;;;4.03;2.38;;;;;;;;;;1023300;29;20518;-75
2023/05/05 03:16:36;;;;;;;6.07;1.23;;;;;;;;;;1019252;29;20033;-75
2023/05/05 03:17:10;;;;;;;6.47;2.10;;;;;;;;;;1019300;29;20027;-74
2023/05/05 03:17:41;;;;;;;2.58;1.42;;;;;;;;;;1020411;29;20911;-75
2023/05/05 03:18:15;;;;;;;0.75;0.50;;;;;;;;;;1020176;29;20024;-75